createdAt,value
2022-11-27T00:02:40.305Z,15.15
2022-11-27T00:05:58.772Z,15.70
2022-11-27T00:09:16.007Z,16.88
2022-11-27T00:15:37.606Z,16.28
2022-11-27T00:18:51.033Z,15.95
2022-11-27T00:22:02.941Z,14.75
2022-11-27T00:25:15.912Z,14.80
2022-11-27T00:28:27.842Z,14.90
2022-11-27T00:31:41.441Z,15.58
2022-11-27T00:34:53.173Z,16.63
2022-11-27T00:38:05.025Z,16.60
2022-11-27T00:41:20.475Z,16.30
2022-11-27T00:44:32.194Z,15.85
2022-11-27T00:47:43.963Z,16.15
2022-11-27T00:50:55.648Z,16.13
2022-11-27T00:54:08.068Z,16.30
2022-11-27T00:57:19.785Z,16.20
2022-11-27T01:00:31.867Z,15.10
2022-11-27T01:03:43.600Z,14.78
2022-11-27T01:06:55.353Z,15.85
2022-11-27T01:10:07.463Z,15.75
2022-11-27T01:13:19.122Z,17.15
2022-11-27T01:16:34.447Z,16.68
2022-11-27T01:19:46.432Z,15.33
2022-11-27T01:22:58.003Z,15.73
2022-11-27T01:26:12.997Z,15.88
2022-11-27T01:29:24.658Z,15.43
2022-11-27T01:32:36.285Z,17.13
2022-11-27T01:35:48.129Z,16.50
2022-11-27T01:39:00.149Z,15.38
2022-11-27T01:42:13.193Z,13.60
2022-11-27T01:45:26.991Z,14.10
2022-11-27T01:48:38.906Z,13.58
2022-11-27T01:51:55.673Z,11.50
2022-11-27T01:55:11.835Z,10.43
2022-11-27T01:58:28.917Z,10.10
2022-11-27T02:04:50.842Z,11.30
2022-11-27T02:08:06.918Z,10.98
2022-11-27T02:11:23.537Z,10.45
2022-11-27T02:14:41.872Z,10.08
2022-11-27T02:18:00.639Z,9.25
2022-11-27T02:21:18.421Z,8.93
2022-11-27T02:24:53.753Z,9.10
2022-11-27T02:28:25.975Z,9.83
2022-11-27T02:31:44.943Z,8.95
2022-11-27T02:35:02.970Z,9.73
2022-11-27T02:38:19.275Z,10.23
2022-11-27T02:41:36.164Z,11.00
2022-11-27T02:44:53.984Z,11.18
2022-11-27T02:48:06.601Z,11.10
2022-11-27T02:51:21.324Z,11.83
2022-11-27T02:54:36.091Z,11.90
2022-11-27T02:57:49.755Z,12.85
2022-11-27T03:01:03.436Z,12.30
2022-11-27T03:04:20.638Z,11.25
2022-11-27T03:10:52.874Z,14.28
2022-11-27T03:14:09.296Z,14.63
2022-11-27T03:17:34.666Z,15.23
2022-11-27T03:20:49.651Z,14.23
2022-11-27T03:24:01.611Z,13.10
2022-11-27T03:27:14.860Z,13.13
2022-11-27T03:30:26.586Z,13.65
2022-11-27T03:33:38.988Z,13.53
2022-11-27T03:36:51.019Z,14.75
2022-11-27T03:40:03.288Z,14.55
2022-11-27T03:43:21.305Z,13.85
2022-11-27T03:46:40.018Z,12.48
2022-11-27T03:50:04.892Z,13.58
2022-11-27T03:53:23.473Z,14.45
2022-11-27T03:56:41.027Z,13.53
2022-11-27T03:59:55.616Z,13.55
2022-11-27T04:03:08.566Z,13.90
2022-11-27T04:06:20.366Z,13.75
2022-11-27T04:09:32.178Z,12.88
2022-11-27T04:12:46.307Z,13.80
2022-11-27T04:15:58.138Z,12.75
2022-11-27T04:19:10.025Z,12.05
2022-11-27T04:22:21.911Z,13.50
2022-11-27T04:25:34.261Z,12.15
2022-11-27T04:28:46.159Z,12.73
2022-11-27T04:31:57.758Z,14.10
2022-11-27T04:35:10.122Z,13.70
2022-11-27T04:38:22.362Z,13.43
2022-11-27T04:41:33.994Z,13.13
2022-11-27T04:44:45.616Z,12.73
2022-11-27T04:47:57.224Z,13.18
2022-11-27T04:51:09.100Z,12.63
2022-11-27T04:54:21.007Z,12.50
2022-11-27T04:57:32.860Z,13.35
2022-11-27T05:00:44.494Z,12.70
2022-11-27T05:03:56.362Z,13.73
2022-11-27T05:07:08.048Z,13.38
2022-11-27T05:10:19.975Z,16.05
2022-11-27T05:13:31.624Z,16.83
2022-11-27T05:16:43.354Z,17.40
2022-11-27T05:19:54.970Z,17.15
2022-11-27T05:23:06.660Z,18.40
2022-11-27T05:26:18.326Z,16.05
2022-11-27T05:29:30.687Z,16.93
2022-11-27T05:32:42.712Z,18.08
2022-11-27T05:35:54.338Z,19.70
2022-11-27T05:39:08.022Z,19.78
2022-11-27T05:42:19.955Z,20.08
2022-11-27T05:45:31.599Z,17.83
2022-11-27T05:48:43.293Z,18.83
2022-11-27T05:51:55.057Z,18.55
2022-11-27T05:55:06.855Z,19.08
2022-11-27T05:58:18.866Z,18.83
2022-11-27T06:01:30.940Z,17.68
2022-11-27T06:04:43.128Z,16.88
2022-11-27T06:07:54.883Z,18.45
2022-11-27T06:11:12.693Z,19.30
2022-11-27T06:14:24.428Z,20.03
2022-11-27T06:17:36.335Z,20.68
2022-11-27T06:20:52.777Z,19.40
2022-11-27T06:24:03.186Z,19.88
2022-11-27T06:27:15.013Z,18.05
2022-11-27T06:30:27.272Z,18.68
2022-11-27T06:33:39.008Z,19.83
2022-11-27T06:36:51.346Z,18.68
2022-11-27T06:40:03.320Z,117.58
2022-11-27T06:43:15.422Z,26.20
2022-11-27T06:46:30.077Z,19.48
2022-11-27T06:49:42.210Z,20.15
2022-11-27T06:52:54.079Z,20.50
2022-11-27T06:56:08.854Z,52.13
2022-11-27T06:59:20.794Z,23.25
2022-11-27T07:02:32.530Z,21.28
2022-11-27T07:05:44.931Z,20.88
2022-11-27T07:08:57.827Z,19.23
2022-11-27T07:12:12.304Z,19.05
2022-11-27T07:15:24.100Z,18.28
2022-11-27T07:18:38.187Z,18.20
2022-11-27T07:21:49.995Z,18.65
2022-11-27T07:25:01.695Z,17.28
2022-11-27T07:28:18.626Z,16.48
2022-11-27T07:31:31.811Z,15.70
2022-11-27T07:34:43.649Z,14.90
2022-11-27T07:37:55.742Z,14.85
2022-11-27T07:41:09.724Z,15.03
2022-11-27T07:44:22.160Z,13.88
2022-11-27T07:47:35.090Z,13.35
2022-11-27T07:50:48.081Z,16.80
2022-11-27T07:53:59.840Z,17.93
2022-11-27T07:57:11.811Z,14.43
2022-11-27T08:00:26.300Z,14.68
2022-11-27T08:03:38.190Z,17.13
2022-11-27T08:06:50.036Z,18.65
2022-11-27T08:10:02.374Z,19.60
2022-11-27T08:13:15.209Z,21.38
2022-11-27T08:16:27.061Z,21.35
2022-11-27T08:19:38.785Z,20.95
2022-11-27T08:22:50.546Z,21.40
2022-11-27T08:26:03.073Z,20.18
2022-11-27T08:29:19.492Z,19.85
2022-11-27T08:32:31.352Z,18.43
2022-11-27T08:35:43.688Z,19.63
2022-11-27T08:38:55.604Z,19.08
2022-11-27T08:42:07.792Z,17.90
2022-11-27T08:45:20.120Z,18.95
2022-11-27T08:48:33.684Z,19.93
2022-11-27T08:51:45.754Z,20.80
2022-11-27T08:54:58.640Z,19.50
2022-11-27T08:58:12.041Z,20.25
2022-11-27T09:01:26.846Z,21.33
2022-11-27T09:04:39.114Z,18.60
2022-11-27T09:07:52.376Z,20.60
2022-11-27T09:11:08.869Z,18.95
2022-11-27T09:14:21.362Z,21.40
2022-11-27T09:17:36.010Z,40.25
2022-11-27T09:20:50.443Z,19.08
2022-11-27T09:24:04.975Z,18.05
2022-11-27T09:27:17.381Z,18.45
2022-11-27T09:30:29.798Z,17.65
2022-11-27T09:33:44.896Z,19.08
2022-11-27T09:36:57.064Z,16.68
2022-11-27T09:40:11.200Z,16.80
2022-11-27T09:43:27.571Z,17.85
2022-11-27T09:46:44.862Z,16.45
2022-11-27T09:50:01.731Z,18.35
2022-11-27T09:53:21.567Z,18.33
2022-11-27T09:56:35.747Z,17.63
2022-11-27T09:59:53.528Z,17.35
2022-11-27T10:03:07.431Z,17.70
2022-11-27T10:06:29.893Z,17.83
2022-11-27T10:09:54.372Z,18.53
2022-11-27T10:13:11.767Z,18.08
2022-11-27T10:16:30.681Z,17.20
2022-11-27T10:19:51.677Z,15.95
2022-11-27T10:23:09.535Z,17.40
2022-11-27T10:26:28.282Z,18.00
2022-11-27T10:29:50.243Z,17.75
2022-11-27T10:33:06.087Z,17.88
2022-11-27T10:36:25.415Z,17.13
2022-11-27T10:39:42.019Z,15.65
2022-11-27T10:43:02.259Z,15.18
2022-11-27T10:46:20.283Z,16.18
2022-11-27T10:49:32.434Z,16.15
2022-11-27T10:52:54.221Z,17.65
2022-11-27T10:56:54.960Z,16.70
2022-11-27T11:00:17.601Z,16.90
2022-11-27T11:03:30.248Z,18.25
2022-11-27T11:06:47.529Z,19.18
2022-11-27T11:10:00.031Z,19.20
2022-11-27T11:13:27.369Z,19.05
2022-11-27T11:19:55.299Z,17.28
2022-11-27T11:23:07.404Z,16.30
2022-11-27T11:26:29.919Z,16.35
2022-11-27T11:29:46.414Z,18.03
2022-11-27T11:33:05.896Z,17.83
2022-11-27T11:36:19.206Z,18.23
2022-11-27T11:39:33.867Z,17.05
2022-11-27T11:42:59.189Z,15.83
2022-11-27T11:46:24.926Z,15.40
2022-11-27T11:49:38.890Z,15.43
2022-11-27T11:52:58.910Z,16.20
2022-11-27T11:56:24.014Z,15.88
2022-11-27T11:59:45.159Z,14.98
2022-11-27T12:03:12.107Z,15.38
2022-11-27T12:06:48.319Z,16.25
2022-11-27T12:10:06.369Z,15.53
2022-11-27T12:13:33.007Z,15.90
2022-11-27T12:16:55.881Z,16.15
2022-11-27T12:20:31.708Z,14.20
2022-11-27T12:24:00.690Z,14.43
2022-11-27T12:27:23.347Z,18.88
2022-11-27T12:30:42.195Z,16.33
2022-11-27T12:34:05.782Z,16.90
2022-11-27T12:37:32.590Z,16.85
2022-11-27T12:40:57.559Z,17.65
2022-11-27T12:44:14.483Z,17.33
2022-11-27T12:47:38.981Z,17.55
2022-11-27T12:50:55.578Z,17.25
2022-11-27T12:54:15.142Z,17.88
2022-11-27T12:57:37.016Z,18.03
2022-11-27T13:00:54.673Z,19.03
2022-11-27T13:04:24.016Z,17.73
2022-11-27T13:07:43.471Z,17.10
2022-11-27T13:11:01.232Z,17.68
2022-11-27T13:14:17.250Z,19.13
2022-11-27T13:17:31.738Z,19.43
2022-11-27T13:20:51.895Z,17.53
2022-11-27T13:24:05.574Z,15.93
2022-11-27T13:30:34.630Z,16.45
2022-11-27T13:33:50.635Z,17.13
2022-11-27T13:37:07.587Z,17.13
2022-11-27T13:43:46.818Z,17.55
2022-11-27T13:47:02.483Z,19.45
2022-11-27T13:50:17.362Z,18.25
2022-11-27T13:53:41.758Z,18.33
2022-11-27T13:56:54.338Z,19.38
2022-11-27T14:00:09.876Z,19.60
2022-11-27T14:03:34.933Z,19.93
2022-11-27T14:06:51.083Z,19.33
2022-11-27T14:10:07.488Z,18.50
2022-11-27T14:13:24.763Z,18.10
2022-11-27T14:16:39.010Z,19.30
2022-11-27T14:19:56.465Z,17.48
2022-11-27T14:23:12.758Z,20.13
2022-11-27T14:26:31.569Z,21.40
2022-11-27T14:29:43.947Z,19.63
2022-11-27T14:32:56.982Z,20.70
2022-11-27T14:36:11.819Z,20.78
2022-11-27T14:39:34.572Z,22.18
2022-11-27T14:42:46.550Z,22.28
2022-11-27T14:46:03.224Z,21.40
2022-11-27T14:49:25.016Z,21.90
2022-11-27T14:52:39.182Z,20.10
2022-11-27T14:55:53.978Z,21.53
2022-11-27T14:59:08.291Z,21.43
2022-11-27T15:02:29.131Z,20.60
2022-11-27T15:05:43.405Z,20.28
2022-11-27T15:09:23.669Z,19.60
2022-11-27T15:12:19.314Z,20.33
2022-11-27T15:15:34.796Z,24.95
2022-11-27T15:18:51.116Z,19.60
2022-11-27T15:22:03.716Z,20.08
2022-11-27T15:25:42.806Z,20.15
2022-11-27T15:29:01.247Z,20.60
2022-11-27T15:32:24.707Z,20.70
2022-11-27T15:35:38.480Z,20.40
2022-11-27T15:38:51.384Z,19.23
2022-11-27T15:42:06.160Z,19.30
2022-11-27T15:45:19.200Z,19.55
2022-11-27T15:48:31.595Z,18.58
2022-11-27T15:51:44.264Z,18.70
2022-11-27T15:54:57.370Z,17.83
2022-11-27T15:58:09.876Z,17.10
2022-11-27T16:01:22.934Z,17.05
2022-11-27T16:04:35.647Z,16.83
2022-11-27T16:07:52.300Z,18.18
2022-11-27T16:11:07.971Z,16.53
2022-11-27T16:14:20.405Z,16.38
2022-11-27T16:17:32.503Z,16.05
2022-11-27T16:20:44.870Z,14.78
2022-11-27T16:23:58.926Z,15.73
2022-11-27T16:27:11.132Z,16.80
2022-11-27T16:30:23.794Z,17.60
2022-11-27T16:33:37.853Z,15.75
2022-11-27T16:36:50.521Z,16.65
2022-11-27T16:40:02.716Z,16.93
2022-11-27T16:43:15.580Z,17.28
2022-11-27T16:46:31.448Z,17.75
2022-11-27T16:49:43.835Z,19.98
2022-11-27T16:52:59.725Z,19.23
2022-11-27T16:56:19.441Z,18.63
2022-11-27T16:59:31.595Z,19.58
2022-11-27T17:02:44.177Z,20.33
2022-11-27T17:05:56.914Z,20.35
2022-11-27T17:09:11.808Z,22.38
2022-11-27T17:12:23.590Z,21.68
2022-11-27T17:15:40.349Z,21.48
2022-11-27T17:18:50.839Z,22.08
2022-11-27T17:22:03.572Z,21.63
2022-11-27T17:25:17.599Z,22.48
2022-11-27T17:28:30.003Z,21.80
2022-11-27T17:31:42.553Z,22.78
2022-11-27T17:34:57.541Z,21.70
2022-11-27T17:38:10.203Z,23.00
2022-11-27T17:41:22.666Z,24.43
2022-11-27T17:44:35.591Z,25.98
2022-11-27T17:47:47.877Z,25.50
2022-11-27T17:51:00.856Z,24.48
2022-11-27T17:54:14.383Z,24.43
2022-11-27T17:57:26.355Z,24.30
2022-11-27T18:00:40.474Z,24.73
2022-11-27T18:03:53.227Z,25.20
2022-11-27T18:07:05.381Z,23.13
2022-11-27T18:10:18.510Z,22.50
2022-11-27T18:13:32.611Z,22.18
2022-11-27T18:16:45.384Z,25.75
2022-11-27T18:19:59.587Z,25.08
2022-11-27T18:23:12.042Z,25.15
2022-11-27T18:26:45.344Z,27.30
2022-11-27T18:29:41.751Z,28.58
2022-11-27T18:32:54.086Z,28.85
2022-11-27T18:36:06.467Z,29.83
2022-11-27T18:39:18.637Z,27.20
2022-11-27T18:42:32.560Z,26.75
2022-11-27T18:45:44.905Z,26.05
2022-11-27T18:48:58.813Z,27.20
2022-11-27T18:52:13.882Z,27.48
2022-11-27T18:55:26.077Z,27.23
2022-11-27T18:58:39.677Z,26.30
2022-11-27T19:01:51.950Z,26.55
2022-11-27T19:05:04.093Z,27.15
2022-11-27T19:08:16.627Z,28.43
2022-11-27T19:11:31.085Z,27.15
2022-11-27T19:14:43.324Z,25.38
2022-11-27T19:17:55.695Z,26.88
2022-11-27T19:21:09.929Z,29.78
2022-11-27T19:24:22.251Z,27.65
2022-11-27T19:27:36.149Z,28.38
2022-11-27T19:30:49.547Z,32.28
2022-11-27T19:34:04.642Z,31.33
2022-11-27T19:37:28.888Z,27.28
2022-11-27T19:40:37.197Z,27.93
2022-11-27T19:43:49.969Z,28.83
2022-11-27T19:47:03.301Z,29.00
2022-11-27T19:50:18.101Z,28.13
2022-11-27T19:53:30.139Z,28.15
2022-11-27T19:56:43.924Z,25.58
2022-11-27T19:59:57.097Z,29.28
2022-11-27T20:03:09.665Z,27.78
2022-11-27T20:06:24.389Z,26.78
2022-11-27T20:09:37.076Z,28.43
2022-11-27T20:12:49.186Z,28.68
2022-11-27T20:16:01.435Z,27.40
2022-11-27T20:19:14.294Z,27.60
2022-11-27T20:22:26.538Z,29.13
2022-11-27T20:25:38.362Z,28.53
2022-11-27T20:28:50.754Z,30.28
2022-11-27T20:32:03.738Z,29.10
2022-11-27T20:35:16.844Z,28.00
2022-11-27T20:38:30.306Z,29.00
2022-11-27T20:41:43.472Z,29.98
2022-11-27T20:44:56.268Z,30.05
2022-11-27T20:48:08.313Z,31.13
2022-11-27T20:51:22.524Z,29.90
2022-11-27T20:54:34.683Z,29.18
2022-11-27T20:57:48.055Z,30.20
2022-11-27T21:01:02.694Z,31.23
2022-11-27T21:04:26.115Z,32.55
2022-11-27T21:07:41.878Z,31.38
2022-11-27T21:10:54.520Z,31.18
2022-11-27T21:14:12.366Z,31.25
2022-11-27T21:17:26.026Z,31.10
2022-11-27T21:20:38.627Z,33.85
2022-11-27T21:23:51.199Z,33.48
2022-11-27T21:27:04.265Z,32.70
2022-11-27T21:30:19.340Z,33.43
2022-11-27T21:33:31.936Z,31.98
2022-11-27T21:36:45.861Z,31.53
2022-11-27T21:39:58.459Z,33.53
2022-11-27T21:43:10.364Z,31.65
2022-11-27T21:46:25.029Z,32.90
2022-11-27T21:49:36.934Z,33.93
2022-11-27T21:52:49.138Z,31.88
2022-11-27T21:56:01.232Z,33.88
2022-11-27T21:59:16.488Z,33.63
2022-11-27T22:02:28.296Z,33.75
2022-11-27T22:05:40.706Z,34.53
2022-11-27T22:08:55.054Z,34.08
2022-11-27T22:12:07.003Z,30.93
2022-11-27T22:15:19.276Z,33.25
2022-11-27T22:18:31.247Z,31.38
2022-11-27T22:21:43.233Z,33.90
2022-11-27T22:24:54.992Z,31.68
2022-11-27T22:28:06.839Z,34.25
2022-11-27T22:31:21.436Z,32.50
2022-11-27T22:34:34.016Z,32.93
2022-11-27T22:37:46.074Z,34.68
2022-11-27T22:41:03.319Z,34.55
2022-11-27T22:44:20.994Z,35.03
2022-11-27T22:47:34.309Z,33.65
2022-11-27T22:50:46.352Z,33.68
2022-11-27T22:53:58.305Z,33.60
2022-11-27T22:57:11.076Z,35.05
2022-11-27T23:00:24.531Z,35.30
2022-11-27T23:03:38.834Z,37.28
2022-11-27T23:06:52.064Z,35.25
2022-11-27T23:10:04.314Z,32.08
2022-11-27T23:13:16.231Z,33.60
2022-11-27T23:16:29.382Z,34.90
2022-11-27T23:19:41.132Z,34.63
2022-11-27T23:22:53.044Z,35.98
2022-11-27T23:26:27.021Z,34.70
2022-11-27T23:29:38.754Z,33.60
2022-11-27T23:32:50.639Z,33.50
2022-11-27T23:36:08.084Z,35.20
2022-11-27T23:39:21.015Z,37.45
2022-11-27T23:42:32.818Z,33.53
2022-11-27T23:45:46.677Z,33.60
2022-11-27T23:48:59.440Z,32.90
2022-11-27T23:52:16.840Z,33.85
2022-11-27T23:55:25.691Z,35.60
2022-11-27T23:58:39.327Z,35.13
